Time;durP1;ratioP1;P1;durP2;ratioP2;P2;SDS_P1;SDS_P2;PMS_P1;PMS_P2;Temp;Humidity;BMP_temperature;BMP_pressure;BME280_temperature;BME280_humidity;BME280_pressure;Samples;Min_cycle;Max_cycle;Signal;HPM_P1;HPM_P2
2022/10/11 00:00:57;;;;;;;4.72;1.73;;;7.30;99.90;;;;;;5091872;28;20050;-57
2022/10/11 00:03:22;;;;;;;4.20;2.30;;;7.20;99.90;;;;;;5092537;28;20016;-53
2022/10/11 00:05:48;;;;;;;5.95;2.15;;;7.10;99.90;;;;;;5091977;28;20021;-49
2022/10/11 00:08:14;;;;;;;9.27;2.33;;;7.00;99.90;;;;;;5091597;28;20105;-52
2022/10/11 00:10:40;;;;;;;6.35;1.67;;;7.00;99.90;;;;;;5091872;28;20016;-54
2022/10/11 00:13:06;;;;;;;4.25;1.75;;;6.90;99.90;;;;;;5092310;28;20027;-66
2022/10/11 00:15:32;;;;;;;3.15;1.80;;;6.80;99.90;;;;;;5091347;28;20012;-50
2022/10/11 00:17:58;;;;;;;5.75;2.10;;;6.80;99.90;;;;;;5092026;28;20154;-59
2022/10/11 00:20:23;;;;;;;5.28;2.10;;;6.70;99.90;;;;;;5091742;28;20274;-63
2022/10/11 00:22:49;;;;;;;4.55;2.13;;;6.70;99.90;;;;;;5091388;28;20047;-55
2022/10/11 00:25:16;;;;;;;3.17;1.70;;;6.70;99.90;;;;;;5090899;28;20487;-50
2022/10/11 00:27:41;;;;;;;5.18;1.73;;;6.60;99.90;;;;;;5091553;28;20024;-62
2022/10/11 00:30:08;;;;;;;4.22;1.80;;;6.60;99.90;;;;;;5090762;28;20100;-53
2022/10/11 00:32:36;;;;;;;2.92;1.85;;;6.60;99.90;;;;;;5091703;28;20086;-51
2022/10/11 00:35:05;;;;;;;4.53;1.90;;;6.50;99.90;;;;;;5083819;28;20035;-55
2022/10/11 00:37:32;;;;;;;5.90;1.52;;;6.50;99.90;;;;;;5069878;28;20029;-50
2022/10/11 00:39:57;;;;;;;6.75;1.55;;;6.50;99.90;;;;;;5069749;28;20064;-57
2022/10/11 00:42:23;;;;;;;3.13;1.75;;;6.40;99.90;;;;;;5071284;28;20048;-55
2022/10/11 00:44:50;;;;;;;5.85;2.05;;;6.40;99.90;;;;;;5070297;28;20103;-50
2022/10/11 00:47:23;;;;;;;4.57;1.50;;;6.40;99.90;;;;;;5071310;28;20024;-49
2022/10/11 00:49:53;;;;;;;3.65;1.70;;;6.40;99.90;;;;;;5071073;28;20028;-58
2022/10/11 00:52:30;;;;;;;4.65;1.92;;;6.40;99.90;;;;;;5070744;28;20066;-52
2022/10/11 00:55:17;;;;;;;4.97;1.75;;;6.40;99.90;;;;;;5070567;28;20111;-59
2022/10/11 00:57:47;;;;;;;7.60;2.10;;;6.30;99.90;;;;;;5069617;28;20036;-61
2022/10/11 01:00:13;;;;;;;7.90;2.00;;;6.30;99.90;;;;;;5071008;28;20154;-57
2022/10/11 01:02:40;;;;;;;7.72;1.92;;;6.30;99.90;;;;;;5070629;28;20472;-64
2022/10/11 01:05:10;;;;;;;6.57;2.05;;;6.30;99.90;;;;;;5070076;28;20397;-65
2022/10/11 01:07:36;;;;;;;5.90;1.63;;;6.20;99.90;;;;;;5070695;28;20377;-55
2022/10/11 01:10:02;;;;;;;4.10;1.73;;;6.20;99.90;;;;;;5070945;28;20016;-64
2022/10/11 01:12:30;;;;;;;4.60;1.60;;;6.20;99.90;;;;;;5070492;28;20493;-65
2022/10/11 01:15:23;;;;;;;6.30;1.80;;;6.10;99.90;;;;;;5070777;28;20103;-66
2022/10/11 01:18:20;;;;;;;3.33;1.48;;;6.10;99.90;;;;;;5070745;28;20025;-65
2022/10/11 01:21:04;;;;;;;8.43;1.75;;;6.10;99.90;;;;;;5070172;28;20219;-66
2022/10/11 01:23:49;;;;;;;3.20;1.90;;;6.00;99.90;;;;;;5071056;28;20044;-66
2022/10/11 01:26:20;;;;;;;5.82;1.77;;;6.00;99.90;;;;;;5070376;28;20052;-65
2022/10/11 01:29:10;;;;;;;;;;;6.00;99.90;;;;;;5070833;28;20363;-63
2022/10/11 01:31:38;;;;;;;3.35;1.80;;;6.00;99.90;;;;;;5070451;28;19905;-53
2022/10/11 01:34:27;;;;;;;5.60;2.03;;;5.90;99.90;;;;;;5070459;28;20622;-67
2022/10/11 01:37:15;;;;;;;5.93;2.00;;;5.90;99.90;;;;;;5070540;28;20032;-64
2022/10/11 01:40:24;;;;;;;3.53;1.60;;;5.90;99.90;;;;;;5070051;28;20064;-66
2022/10/11 01:42:51;;;;;;;4.07;1.67;;;5.90;99.90;;;;;;5074653;28;20077;-67
2022/10/11 01:45:18;;;;;;;7.18;2.08;;;5.80;99.90;;;;;;5074851;28;20032;-67
2022/10/11 01:47:45;;;;;;;2.95;1.60;;;5.80;99.90;;;;;;5073745;28;20024;-58
2022/10/11 01:50:33;;;;;;;3.10;1.60;;;5.80;99.90;;;;;;5074512;28;20024;-54
2022/10/11 01:53:24;;;;;;;3.15;1.60;;;5.80;99.90;;;;;;5074786;28;20013;-54
2022/10/11 01:56:04;;;;;;;6.70;2.00;;;5.80;99.90;;;;;;5074083;28;20504;-63
2022/10/11 01:59:06;;;;;;;4.30;2.03;;;5.80;99.90;;;;;;5074433;28;20016;-66
2022/10/11 02:01:49;;;;;;;5.10;1.90;;;5.70;99.90;;;;;;5072607;28;20035;-60
2022/10/11 02:04:39;;;;;;;3.85;2.05;;;5.70;99.90;;;;;;5074357;28;20087;-64
2022/10/11 02:07:22;;;;;;;9.80;1.95;;;5.70;99.90;;;;;;5074387;28;20040;-63
2022/10/11 02:10:25;;;;;;;7.40;2.08;;;5.70;99.90;;;;;;5074330;28;20060;-63
2022/10/11 02:13:14;;;;;;;5.10;1.75;;;5.70;99.90;;;;;;5074104;28;20021;-65
2022/10/11 02:15:42;;;;;;;7.00;1.80;;;5.70;99.90;;;;;;5072697;28;20507;-67
2022/10/11 02:18:12;;;;;;;4.18;1.98;;;5.60;99.90;;;;;;5074191;28;20429;-67
2022/10/11 02:20:41;;;;;;;3.83;1.60;;;5.60;99.90;;;;;;5087985;28;20048;-53
2022/10/11 02:23:19;;;;;;;4.88;1.98;;;5.60;99.90;;;;;;5092380;28;20108;-56
2022/10/11 02:25:46;;;;;;;3.22;1.70;;;5.60;99.90;;;;;;5093265;28;20028;-60
2022/10/11 02:28:18;;;;;;;5.53;1.90;;;5.50;99.90;;;;;;5093938;28;20427;-53
2022/10/11 02:30:46;;;;;;;4.30;2.50;;;5.50;99.90;;;;;;5092975;28;20153;-48
2022/10/11 02:33:14;;;;;;;4.72;2.30;;;5.50;99.90;;;;;;5093890;28;20024;-54
2022/10/11 02:35:46;;;;;;;4.22;1.80;;;5.40;99.90;;;;;;5092796;28;20044;-56
2022/10/11 02:38:17;;;;;;;4.55;1.80;;;5.40;99.90;;;;;;5093815;28;20487;-54
2022/10/11 02:40:47;;;;;;;4.10;1.90;;;5.40;99.90;;;;;;5092978;28;20028;-50
2022/10/11 02:43:18;;;;;;;2.95;1.65;;;5.40;99.90;;;;;;5092833;28;20055;-52
2022/10/11 02:45:57;;;;;;;2.55;1.77;;;5.40;99.90;;;;;;5092986;28;20031;-54
2022/10/11 02:48:26;;;;;;;3.83;1.88;;;5.30;99.90;;;;;;5093328;28;20024;-51
2022/10/11 02:50:54;;;;;;;3.55;1.58;;;5.30;99.90;;;;;;5092478;28;20110;-62
2022/10/11 02:53:21;;;;;;;7.00;2.05;;;5.30;99.90;;;;;;5092931;28;20024;-62
2022/10/11 02:55:48;;;;;;;5.70;1.60;;;5.30;99.90;;;;;;5093022;28;20560;-61
2022/10/11 02:58:13;;;;;;;5.40;1.67;;;5.30;99.90;;;;;;5092713;28;20028;-61
2022/10/11 03:00:39;;;;;;;2.67;1.58;;;5.30;99.90;;;;;;5093217;28;20392;-67
2022/10/11 03:03:05;;;;;;;6.95;1.90;;;5.30;99.90;;;;;;5093157;28;20125;-64
2022/10/11 03:05:35;;;;;;;5.80;1.98;;;5.30;99.90;;;;;;5092415;28;20028;-66
2022/10/11 03:08:01;;;;;;;8.93;1.98;;;5.30;99.90;;;;;;5093192;28;20032;-65
2022/10/11 03:10:27;;;;;;;3.40;1.50;;;5.20;99.90;;;;;;5093191;28;20032;-58
2022/10/11 03:12:52;;;;;;;6.25;1.50;;;5.20;99.90;;;;;;5092024;28;20024;-57
2022/10/11 03:15:18;;;;;;;4.60;1.73;;;5.20;99.90;;;;;;5093013;28;20027;-66
2022/10/11 03:17:43;;;;;;;8.50;1.88;;;5.20;99.90;;;;;;5091901;28;20495;-65
2022/10/11 03:20:09;;;;;;;6.70;2.17;;;5.20;99.90;;;;;;5092377;28;20457;-66
2022/10/11 03:22:35;;;;;;;3.42;1.60;;;5.20;99.90;;;;;;5092939;28;20476;-63
2022/10/11 03:25:01;;;;;;;4.40;1.40;;;5.20;99.90;;;;;;5092318;28;20020;-55
2022/10/11 03:27:26;;;;;;;6.60;2.05;;;5.30;99.90;;;;;;5092358;28;20020;-48
2022/10/11 03:29:52;;;;;;;8.25;2.00;;;5.20;99.90;;;;;;5092117;28;20030;-55
2022/10/11 03:32:17;;;;;;;3.08;1.80;;;5.20;99.90;;;;;;5091989;28;20512;-55
2022/10/11 03:34:43;;;;;;;4.65;1.80;;;5.20;99.90;;;;;;5092094;28;20061;-54
2022/10/11 03:37:08;;;;;;;2.67;1.75;;;5.20;99.90;;;;;;5092358;28;20024;-49
2022/10/11 03:39:34;;;;;;;6.38;2.10;;;5.20;99.90;;;;;;5091730;28;20020;-52
2022/10/11 03:41:59;;;;;;;3.10;1.90;;;5.20;99.90;;;;;;5092168;28;20486;-55
2022/10/11 03:44:25;;;;;;;4.88;2.03;;;5.20;99.90;;;;;;5092340;28;20024;-51
2022/10/11 03:46:51;;;;;;;3.85;1.60;;;5.30;99.90;;;;;;5091309;28;20089;-55
2022/10/11 03:49:16;;;;;;;5.72;2.03;;;5.30;99.90;;;;;;5092049;28;20070;-48
2022/10/11 03:51:42;;;;;;;4.90;1.98;;;5.40;99.90;;;;;;5091689;28;20024;-51
2022/10/11 03:54:08;;;;;;;6.32;2.30;;;5.40;99.90;;;;;;5091660;28;20054;-51
2022/10/11 03:56:33;;;;;;;3.13;1.60;;;5.50;99.90;;;;;;5091098;28;20047;-51
2022/10/11 03:58:59;;;;;;;3.25;1.85;;;5.50;99.90;;;;;;5092166;28;20468;-53
2022/10/11 04:01:25;;;;;;;7.20;2.20;;;5.60;99.90;;;;;;5093674;28;20027;-54
2022/10/11 04:03:55;;;;;;;6.88;2.50;;;5.80;99.90;;;;;;5095301;28;20058;-56
2022/10/11 04:06:20;;;;;;;4.85;2.30;;;5.80;99.90;;;;;;5092509;28;20024;-51
2022/10/11 04:08:46;;;;;;;5.53;1.80;;;5.80;99.90;;;;;;5091153;28;20373;-51
2022/10/11 04:11:11;;;;;;;7.75;2.85;;;5.80;99.90;;;;;;5091711;28;20035;-56
2022/10/11 04:13:37;;;;;;;5.05;2.33;;;5.80;99.90;;;;;;5091468;28;20032;-50
2022/10/11 04:16:03;;;;;;;5.55;2.42;;;5.80;99.90;;;;;;5090934;28;20031;-50
2022/10/11 04:18:28;;;;;;;7.10;2.58;;;5.80;99.90;;;;;;5091453;28;20494;-49
2022/10/11 04:20:54;;;;;;;4.97;2.53;;;5.70;99.90;;;;;;5090942;28;20051;-56
2022/10/11 04:23:19;;;;;;;6.32;2.28;;;5.70;99.90;;;;;;5091114;28;20024;-51
2022/10/11 04:25:47;;;;;;;4.75;2.72;;;5.70;99.90;;;;;;5091381;28;20020;-49
2022/10/11 04:28:12;;;;;;;5.75;3.00;;;5.70;99.90;;;;;;5090999;28;20039;-48
2022/10/11 04:30:38;;;;;;;9.52;2.97;;;5.60;99.90;;;;;;5091133;28;20395;-51
2022/10/11 04:33:04;;;;;;;6.25;2.95;;;5.60;99.90;;;;;;5091430;28;20024;-50
2022/10/11 04:35:29;;;;;;;5.75;3.00;;;5.60;99.90;;;;;;5090529;28;20081;-48
2022/10/11 04:37:55;;;;;;;5.22;2.60;;;5.60;99.90;;;;;;5090870;28;20334;-49
2022/10/11 04:40:21;;;;;;;3.47;2.25;;;5.50;99.90;;;;;;5091191;28;20040;-53
2022/10/11 04:42:46;;;;;;;5.55;2.75;;;5.50;99.90;;;;;;5090598;28;20207;-62
2022/10/11 04:45:12;;;;;;;8.43;2.42;;;5.50;99.90;;;;;;5089591;28;20828;-55
2022/10/11 04:47:39;;;;;;;5.05;3.10;;;5.50;99.90;;;;;;5088563;28;20077;-55
2022/10/11 04:50:05;;;;;;;6.03;2.45;;;5.40;99.90;;;;;;5089976;28;20401;-50
2022/10/11 04:52:30;;;;;;;3.83;2.50;;;5.40;99.90;;;;;;5090787;28;20468;-53
2022/10/11 04:54:56;;;;;;;4.68;2.22;;;5.40;99.90;;;;;;5090797;28;20265;-51
2022/10/11 04:57:22;;;;;;;4.22;2.53;;;5.30;99.90;;;;;;5090296;28;20460;-58
2022/10/11 04:59:47;;;;;;;4.68;2.38;;;5.30;99.90;;;;;;5090840;28;20047;-55
2022/10/11 05:02:13;;;;;;;3.38;2.00;;;5.20;99.90;;;;;;5090748;28;20059;-54
2022/10/11 05:04:38;;;;;;;4.03;2.17;;;5.20;99.90;;;;;;5090018;28;20460;-55
2022/10/11 05:07:05;;;;;;;3.35;2.33;;;5.20;99.90;;;;;;5090830;28;20016;-60
2022/10/11 05:09:30;;;;;;;4.75;2.05;;;5.20;99.90;;;;;;5090968;28;20039;-60
2022/10/11 05:11:56;;;;;;;3.60;2.10;;;5.20;99.90;;;;;;5089816;28;20021;-55
2022/10/11 05:14:22;;;;;;;6.35;2.60;;;5.10;99.90;;;;;;5090819;28;20028;-58
2022/10/11 05:16:47;;;;;;;7.78;2.85;;;5.10;99.90;;;;;;5090464;28;20034;-57
2022/10/11 05:19:13;;;;;;;4.43;2.63;;;5.10;99.90;;;;;;5089740;28;20040;-55
2022/10/11 05:21:38;;;;;;;5.22;2.22;;;5.10;99.90;;;;;;5090433;28;20024;-50
2022/10/11 05:24:04;;;;;;;4.30;2.05;;;5.10;99.90;;;;;;5090665;28;20051;-48
2022/10/11 05:26:30;;;;;;;6.15;2.55;;;5.00;99.90;;;;;;5088802;28;20468;-53
2022/10/11 05:28:56;;;;;;;8.38;2.58;;;5.00;99.90;;;;;;5090281;28;20107;-51
2022/10/11 05:31:22;;;;;;;4.80;2.33;;;5.00;99.90;;;;;;5088664;28;20020;-57
2022/10/11 05:33:47;;;;;;;5.15;2.35;;;5.00;99.90;;;;;;5090471;28;20032;-53
2022/10/11 05:36:13;;;;;;;4.35;2.20;;;4.90;99.90;;;;;;5090347;28;20388;-51
2022/10/11 05:38:39;;;;;;;5.43;2.58;;;4.90;99.90;;;;;;5089636;28;20028;-51
2022/10/11 05:41:07;;;;;;;7.85;2.40;;;4.90;99.90;;;;;;5090546;28;20028;-54
2022/10/11 05:43:33;;;;;;;5.18;2.55;;;4.90;99.90;;;;;;5090537;28;20020;-52
2022/10/11 05:45:59;;;;;;;4.68;2.78;;;4.90;99.90;;;;;;5089823;28;20041;-49
2022/10/11 05:48:25;;;;;;;4.05;2.40;;;4.90;99.90;;;;;;5090384;28;20488;-51
2022/10/11 05:50:51;;;;;;;7.22;2.42;;;4.90;99.90;;;;;;5090302;28;20024;-56
2022/10/11 05:53:17;;;;;;;3.38;2.17;;;4.90;99.90;;;;;;5089549;28;20020;-55
2022/10/11 05:55:43;;;;;;;3.08;1.83;;;4.90;99.90;;;;;;5090279;28;20043;-54
2022/10/11 05:58:13;;;;;;;6.78;2.35;;;4.90;99.90;;;;;;5090424;28;20350;-52
2022/10/11 06:00:40;;;;;;;4.70;2.13;;;4.90;99.90;;;;;;5089246;28;20499;-55
2022/10/11 06:03:07;;;;;;;4.78;2.40;;;4.90;99.90;;;;;;5090687;28;20043;-50
2022/10/11 06:05:34;;;;;;;3.83;2.25;;;4.90;99.90;;;;;;5090962;28;20032;-52
2022/10/11 06:08:00;;;;;;;4.82;2.30;;;4.90;99.90;;;;;;5085236;28;20017;-53
2022/10/11 06:10:25;;;;;;;5.07;2.53;;;4.90;99.90;;;;;;5085064;28;20090;-51
2022/10/11 06:12:51;;;;;;;4.18;2.45;;;4.90;99.90;;;;;;5087389;28;20411;-63
2022/10/11 06:15:17;;;;;;;6.95;2.30;;;4.90;99.90;;;;;;5088673;28;20031;-64
2022/10/11 06:17:42;;;;;;;4.82;2.30;;;4.90;99.90;;;;;;5088693;28;20031;-66
2022/10/11 06:20:08;;;;;;;3.50;1.88;;;5.00;99.90;;;;;;5086770;28;20089;-54
2022/10/11 06:22:34;;;;;;;4.03;1.98;;;5.00;99.90;;;;;;5087612;28;20263;-53
2022/10/11 06:25:00;;;;;;;5.75;2.30;;;5.00;99.90;;;;;;5089324;28;20050;-52
2022/10/11 06:27:25;;;;;;;3.70;1.95;;;5.00;99.90;;;;;;5092342;28;20095;-51
2022/10/11 06:29:51;;;;;;;3.50;1.73;;;5.10;99.90;;;;;;5092304;28;20489;-49
2022/10/11 06:32:17;;;;;;;4.10;2.05;;;5.10;99.90;;;;;;5093776;28;20040;-53
2022/10/11 06:34:42;;;;;;;6.78;2.28;;;5.20;99.90;;;;;;5093056;28;20026;-52
2022/10/11 06:37:08;;;;;;;6.20;2.33;;;5.20;99.90;;;;;;5094094;28;20396;-52
2022/10/11 06:39:33;;;;;;;6.00;2.88;;;5.30;99.90;;;;;;5093574;28;20053;-53
2022/10/11 06:41:59;;;;;;;5.90;3.05;;;5.40;99.90;;;;;;5093229;28;20024;-62
2022/10/11 06:44:25;;;;;;;4.53;2.67;;;5.40;99.90;;;;;;5094367;28;20020;-56
2022/10/11 06:46:51;;;;;;;6.47;2.63;;;5.50;99.90;;;;;;5093868;28;20053;-66
2022/10/11 06:49:17;;;;;;;6.53;2.83;;;5.60;99.90;;;;;;5093352;28;20115;-65
2022/10/11 06:51:42;;;;;;;5.70;3.10;;;5.70;99.90;;;;;;5093623;28;20403;-51
2022/10/11 06:54:08;;;;;;;8.20;3.08;;;5.80;99.90;;;;;;5093809;28;20020;-52
2022/10/11 06:56:34;;;;;;;8.07;2.53;;;5.90;99.90;;;;;;5092854;28;20476;-52
2022/10/11 06:58:59;;;;;;;7.35;2.78;;;6.00;99.90;;;;;;5092971;28;20028;-48
2022/10/11 07:01:26;;;;;;;8.77;4.35;;;6.10;99.90;;;;;;5093762;28;20025;-52
2022/10/11 07:03:54;;;;;;;8.50;4.10;;;6.30;99.90;;;;;;5092436;28;20413;-47
2022/10/11 07:06:22;;;;;;;9.75;4.18;;;6.40;99.90;;;;;;5093545;28;20031;-54
2022/10/11 07:08:48;;;;;;;12.90;6.57;;;6.60;99.90;;;;;;5092907;28;20016;-53
2022/10/11 07:11:17;;;;;;;12.32;8.35;;;6.70;99.90;;;;;;5092591;28;20020;-54
2022/10/11 07:13:47;;;;;;;11.13;7.00;;;6.80;99.90;;;;;;5093033;28;20073;-57
2022/10/11 07:16:12;;;;;;;10.88;6.07;;;6.90;99.90;;;;;;5092578;28;20439;-52
2022/10/11 07:18:38;;;;;;;13.88;8.52;;;7.00;99.90;;;;;;5091707;28;20047;-57
2022/10/11 07:21:11;;;;;;;14.45;7.35;;;7.10;99.90;;;;;;5092641;28;20032;-55
2022/10/11 07:23:37;;;;;;;9.15;4.88;;;7.30;99.90;;;;;;5092291;28;20036;-53
2022/10/11 07:26:03;;;;;;;8.27;4.35;;;7.30;99.90;;;;;;5091832;28;20368;-57
2022/10/11 07:28:29;;;;;;;9.38;5.60;;;7.40;99.90;;;;;;5092503;28;20028;-49
2022/10/11 07:30:56;;;;;;;10.30;5.28;;;7.50;99.90;;;;;;5091425;28;20376;-54
2022/10/11 07:33:22;;;;;;;7.70;5.78;;;7.50;99.90;;;;;;5092610;28;20103;-61
2022/10/11 07:35:48;;;;;;;11.05;7.10;;;7.60;99.90;;;;;;5092125;28;20158;-51
2022/10/11 07:38:15;;;;;;;10.93;7.90;;;7.60;99.90;;;;;;5091580;28;20027;-50
2022/10/11 07:40:45;;;;;;;11.93;7.65;;;7.70;99.90;;;;;;5091984;28;20033;-55
2022/10/11 07:43:11;;;;;;;12.90;7.75;;;7.70;99.90;;;;;;5092356;28;20069;-56
2022/10/11 07:45:38;;;;;;;11.07;7.45;;;7.80;99.90;;;;;;5091169;28;20338;-54
2022/10/11 07:48:04;;;;;;;8.82;7.28;;;7.80;99.90;;;;;;5092231;28;20031;-57
2022/10/11 07:50:30;;;;;;;13.15;5.60;;;7.80;99.90;;;;;;5092182;28;20028;-53
2022/10/11 07:52:55;;;;;;;7.90;5.50;;;7.80;99.90;;;;;;5090798;28;20020;-55
2022/10/11 07:55:21;;;;;;;10.20;6.85;;;7.90;99.90;;;;;;5092231;28;20515;-53
2022/10/11 07:57:46;;;;;;;11.07;6.65;;;8.00;99.90;;;;;;5091686;28;20384;-49
2022/10/11 08:00:12;;;;;;;10.80;5.22;;;8.10;99.90;;;;;;5091277;28;20055;-51
2022/10/11 08:02:38;;;;;;;8.57;5.80;;;8.10;99.90;;;;;;5091522;28;20367;-48
2022/10/11 08:05:04;;;;;;;12.85;8.27;;;8.20;99.90;;;;;;5091804;28;20031;-51
2022/10/11 08:07:29;;;;;;;15.57;10.38;;;8.40;99.90;;;;;;5091334;28;20025;-51
2022/10/11 08:09:56;;;;;;;15.70;10.60;;;8.50;99.90;;;;;;5091306;28;20192;-49
2022/10/11 08:12:21;;;;;;;14.57;8.95;;;8.50;99.90;;;;;;5091870;28;20016;-49
2022/10/11 08:14:47;;;;;;;23.55;13.57;;;8.60;99.90;;;;;;5090765;28;20034;-49
2022/10/11 08:17:13;;;;;;;14.55;8.95;;;8.70;99.90;;;;;;5091707;28;20024;-52
2022/10/11 08:19:39;;;;;;;15.18;10.38;;;8.80;99.90;;;;;;5092123;28;20049;-58
2022/10/11 08:22:04;;;;;;;12.93;8.15;;;8.90;99.90;;;;;;5091039;28;20016;-64
2022/10/11 08:24:30;;;;;;;9.85;6.32;;;9.00;99.90;;;;;;5091494;28;20484;-65
2022/10/11 08:26:55;;;;;;;14.10;7.22;;;9.10;99.90;;;;;;5091563;28;20028;-64
2022/10/11 08:29:21;;;;;;;12.73;5.07;;;9.20;99.90;;;;;;5090969;28;20101;-61
2022/10/11 08:31:47;;;;;;;9.07;4.45;;;9.30;99.90;;;;;;5091486;28;20016;-58
2022/10/11 08:34:12;;;;;;;17.23;9.38;;;9.40;99.90;;;;;;5090821;28;20106;-59
2022/10/11 08:36:38;;;;;;;14.00;8.48;;;9.50;99.90;;;;;;5090974;28;20020;-49
2022/10/11 08:39:05;;;;;;;18.08;12.13;;;9.50;99.90;;;;;;5091034;28;20100;-53
2022/10/11 08:41:42;;;;;;;23.17;13.88;;;9.60;99.90;;;;;;5090415;28;20063;-54
2022/10/11 08:44:41;;;;;;;17.75;10.38;;;9.60;99.90;;;;;;5091079;28;20462;-59
2022/10/11 08:47:09;;;;;;;12.18;7.28;;;9.70;99.90;;;;;;5089421;28;20036;-57
2022/10/11 08:49:36;;;;;;;13.50;7.20;;;9.80;99.90;;;;;;5089969;28;20016;-53
2022/10/11 08:52:17;;;;;;;11.95;7.88;;;9.80;99.90;;;;;;5090701;28;20020;-50
2022/10/11 08:54:52;;;;;;;14.07;10.00;;;9.80;99.90;;;;;;5090639;28;20024;-55
2022/10/11 08:57:24;;;;;;;13.88;9.75;;;9.80;99.90;;;;;;5090743;28;20042;-51
2022/10/11 08:59:59;;;;;;;15.93;8.27;;;9.80;99.90;;;;;;5090553;28;20101;-50
2022/10/11 09:02:37;;;;;;;9.38;6.07;;;9.80;99.90;;;;;;5090528;28;20434;-55
2022/10/11 09:05:04;;;;;;;11.32;5.80;;;9.80;99.90;;;;;;5090921;28;20046;-54
2022/10/11 09:07:48;;;;;;;17.83;8.27;;;9.80;99.90;;;;;;5090617;28;20032;-55
2022/10/11 09:10:32;;;;;;;13.95;9.68;;;9.90;99.90;;;;;;5089857;28;20376;-50
2022/10/11 09:13:14;;;;;;;14.80;8.55;;;9.90;99.90;;;;;;5090220;28;20427;-54
2022/10/11 09:15:50;;;;;;;;;;;10.00;99.90;;;;;;5090811;28;20500;-58
2022/10/11 09:18:34;;;;;;;12.65;4.93;;;10.10;99.90;;;;;;5089997;28;19950;-58
2022/10/11 09:21:25;;;;;;;12.98;6.13;;;10.10;99.90;;;;;;5089965;28;20504;-58
2022/10/11 09:24:12;;;;;;;9.77;5.07;;;10.20;99.90;;;;;;5089773;28;20020;-56
2022/10/11 09:26:54;;;;;;;10.07;5.18;;;10.30;99.90;;;;;;5090388;28;20028;-52
2022/10/11 09:29:47;;;;;;;8.90;3.83;;;10.50;99.90;;;;;;5090519;28;20384;-57
2022/10/11 09:32:15;;;;;;;8.15;2.75;;;10.60;99.90;;;;;;5090237;28;20089;-49
2022/10/11 09:34:42;;;;;;;14.02;3.70;;;10.70;99.90;;;;;;5090348;28;20028;-50
2022/10/11 09:37:19;;;;;;;9.38;3.95;;;10.90;99.90;;;;;;5090422;28;20020;-52
2022/10/11 09:39:56;;;;;;;10.93;3.95;;;10.90;99.90;;;;;;5089613;28;20060;-49
2022/10/11 09:42:21;;;;;;;8.10;3.63;;;11.00;99.90;;;;;;5090263;28;20174;-49
2022/10/11 09:44:49;;;;;;;7.18;3.67;;;11.10;99.90;;;;;;5089702;28;20183;-49
2022/10/11 09:47:24;;;;;;;6.28;3.22;;;11.20;99.90;;;;;;5090349;28;20020;-49
2022/10/11 09:50:13;;;;;;;7.85;3.63;;;11.30;99.90;;;;;;5090044;28;20062;-53
2022/10/11 09:52:53;;;;;;;6.35;3.58;;;11.30;99.90;;;;;;5088872;28;20032;-53
2022/10/11 09:55:33;;;;;;;9.82;2.80;;;11.40;99.90;;;;;;5090301;28;20020;-53
2022/10/11 09:58:00;;;;;;;9.68;2.80;;;11.50;99.90;;;;;;5089632;28;20495;-48
2022/10/11 10:00:28;;;;;;;8.43;3.22;;;11.60;99.90;;;;;;5089840;28;20064;-50
2022/10/11 10:02:56;;;;;;;9.65;3.08;;;11.60;99.90;;;;;;5092719;28;20098;-56
2022/10/11 10:05:35;;;;;;;3.90;1.85;;;11.70;99.90;;;;;;5094466;28;20110;-54
2022/10/11 10:08:22;;;;;;;6.40;2.30;;;11.80;99.90;;;;;;5093962;28;20476;-53
2022/10/11 10:11:08;;;;;;;8.23;2.70;;;11.90;99.90;;;;;;5092720;28;20028;-52
2022/10/11 10:13:48;;;;;;;8.18;2.20;;;11.90;99.90;;;;;;5093460;28;20043;-55
2022/10/11 10:16:36;;;;;;;6.57;2.47;;;12.00;99.90;;;;;;5093849;28;20028;-51
2022/10/11 10:19:15;;;;;;;5.38;2.03;;;12.10;99.90;;;;;;5093827;28;20024;-54
2022/10/11 10:21:49;;;;;;;6.50;2.30;;;12.20;99.90;;;;;;5093081;28;20020;-54
2022/10/11 10:24:29;;;;;;;6.78;2.17;;;12.30;99.90;;;;;;5096468;28;20468;-56
2022/10/11 10:27:04;;;;;;;7.53;1.95;;;12.40;99.90;;;;;;5112119;28;20025;-63
2022/10/11 10:29:30;;;;;;;8.82;2.10;;;12.60;99.90;;;;;;5094903;28;20464;-67
2022/10/11 10:31:56;;;;;;;5.10;2.08;;;12.80;99.90;;;;;;5094022;28;20020;-68
2022/10/11 10:34:32;;;;;;;7.90;2.15;;;13.00;99.90;;;;;;5093435;28;20058;-67
2022/10/11 10:37:13;;;;;;;10.05;2.35;;;13.30;99.90;;;;;;5093698;28;20035;-68
2022/10/11 10:40:07;;;;;;;5.57;1.80;;;13.50;99.90;;;;;;5093549;28;20028;-61
2022/10/11 10:42:33;;;;;;;6.50;2.58;;;13.80;99.90;;;;;;5092970;28;20063;-67
2022/10/11 10:44:59;;;;;;;9.35;2.20;;;14.00;99.90;;;;;;5093729;28;20047;-67
2022/10/11 10:47:55;;;;;;;6.22;1.90;;;14.00;99.90;;;;;;5092429;28;20031;-56
2022/10/11 10:50:26;;;;;;;5.38;1.92;;;14.10;99.70;;;;;;5093961;28;20034;-67
2022/10/11 10:53:02;;;;;;;7.97;2.17;;;14.00;98.60;;;;;;5092987;28;20464;-62
2022/10/11 10:55:43;;;;;;;8.90;1.80;;;13.90;97.80;;;;;;5093103;28;20093;-67
2022/10/11 10:58:34;;;;;;;8.88;1.90;;;13.70;96.90;;;;;;5093295;28;20032;-59
2022/10/11 11:01:21;;;;;;;6.18;1.52;;;13.60;96.20;;;;;;5092998;28;20061;-58
2022/10/11 11:03:51;;;;;;;5.07;1.17;;;13.40;96.40;;;;;;5092361;28;20016;-55
2022/10/11 11:06:39;;;;;;;3.78;1.27;;;13.30;96.50;;;;;;5093001;28;20060;-48
2022/10/11 11:09:23;;;;;;;8.57;1.55;;;13.20;96.80;;;;;;5090335;28;20016;-54
2022/10/11 11:12:18;;;;;;;3.20;0.98;;;13.20;96.90;;;;;;5091628;28;20097;-57
2022/10/11 11:14:47;;;;;;;5.07;1.17;;;13.20;97.10;;;;;;5091863;28;20465;-50
2022/10/11 11:17:24;;;;;;;4.30;0.90;;;13.30;97.00;;;;;;5092977;28;20107;-54
2022/10/11 11:20:12;;;;;;;7.03;1.08;;;13.40;97.00;;;;;;5092402;28;20050;-58
2022/10/11 11:23:15;;;;;;;2.25;0.90;;;13.50;96.20;;;;;;5091625;28;20028;-55
2022/10/11 11:25:56;;;;;;;6.72;1.35;;;13.60;95.30;;;;;;5092571;28;20101;-54
2022/10/11 11:28:26;;;;;;;7.05;1.30;;;13.70;94.00;;;;;;5092084;28;20028;-56
2022/10/11 11:31:17;;;;;;;5.03;1.27;;;13.80;94.40;;;;;;5092601;28;20066;-57
2022/10/11 11:33:57;;;;;;;6.82;1.25;;;13.90;94.20;;;;;;5092055;28;20547;-56
2022/10/11 11:36:41;;;;;;;5.47;1.25;;;14.10;93.20;;;;;;5092118;28;20020;-59
2022/10/11 11:39:18;;;;;;;5.15;2.00;;;14.30;92.90;;;;;;5092826;28;20063;-53
2022/10/11 11:41:50;;;;;;;6.90;1.38;;;14.50;92.70;;;;;;5092552;28;20462;-51
2022/10/11 11:44:26;;;;;;;8.18;1.50;;;14.70;92.50;;;;;;5092082;28;20016;-58
2022/10/11 11:47:07;;;;;;;3.90;1.30;;;14.90;91.10;;;;;;5092638;28;20028;-56
2022/10/11 11:49:35;;;;;;;7.10;1.30;;;15.00;90.80;;;;;;5092181;28;20373;-54
2022/10/11 11:52:04;;;;;;;6.32;1.80;;;15.20;90.30;;;;;;5092542;28;20012;-53
2022/10/11 11:54:50;;;;;;;4.38;1.10;;;15.20;90.40;;;;;;5092429;28;20028;-55
2022/10/11 11:57:53;;;;;;;4.25;1.25;;;15.40;89.50;;;;;;5091766;28;20066;-54
2022/10/11 12:00:22;;;;;;;9.68;1.80;;;15.40;88.40;;;;;;5092318;28;20028;-54
2022/10/11 12:02:56;;;;;;;4.75;1.20;;;15.40;85.40;;;;;;5092027;28;20039;-51
2022/10/11 12:05:29;;;;;;;4.85;1.30;;;15.40;85.50;;;;;;5091626;28;20050;-56
2022/10/11 12:08:04;;;;;;;7.50;1.60;;;15.40;86.20;;;;;;5091712;28;20055;-50
2022/10/11 12:10:30;;;;;;;4.63;1.13;;;15.40;85.70;;;;;;5091763;28;20028;-50
2022/10/11 12:13:16;;;;;;;9.73;1.63;;;15.30;85.70;;;;;;5091815;28;20032;-53
2022/10/11 12:16:08;;;;;;;6.97;1.33;;;15.20;84.30;;;;;;5091915;28;20025;-52
2022/10/11 12:18:44;;;;;;;4.47;1.20;;;15.10;84.80;;;;;;5091678;28;20392;-51
2022/10/11 12:21:22;;;;;;;5.32;1.17;;;15.00;85.50;;;;;;5091894;28;20058;-52
2022/10/11 12:23:56;;;;;;;4.25;1.15;;;14.90;86.00;;;;;;5091404;28;20111;-57
2022/10/11 12:26:27;;;;;;;7.47;1.10;;;14.80;86.60;;;;;;5089786;28;20107;-55
2022/10/11 12:28:59;;;;;;;4.55;0.95;;;14.70;87.10;;;;;;5091789;28;20025;-53
2022/10/11 12:31:29;;;;;;;4.55;1.33;;;14.50;87.60;;;;;;5091927;28;20024;-55
2022/10/11 12:34:00;;;;;;;5.13;1.48;;;14.40;88.00;;;;;;5092581;28;20039;-55
2022/10/11 12:36:47;;;;;;;5.30;1.20;;;14.40;88.30;;;;;;5092222;28;20016;-65
2022/10/11 12:39:18;;;;;;;6.88;1.52;;;14.30;88.50;;;;;;5091100;28;20456;-65
2022/10/11 12:41:50;;;;;;;4.75;1.10;;;14.30;88.40;;;;;;5091914;28;20028;-67
2022/10/11 12:44:23;;;;;;;4.75;1.27;;;14.30;88.90;;;;;;5091884;28;20080;-65
2022/10/11 12:46:54;;;;;;;5.00;1.00;;;14.30;89.20;;;;;;5090868;28;20369;-65
2022/10/11 12:49:46;;;;;;;3.83;1.00;;;14.40;89.90;;;;;;5079456;28;20020;-58
2022/10/11 12:52:39;;;;;;;6.18;1.35;;;14.30;90.10;;;;;;5085669;28;20029;-64
2022/10/11 12:55:16;;;;;;;3.38;0.95;;;14.30;90.40;;;;;;5090739;28;20085;-61
2022/10/11 12:57:54;;;;;;;6.13;1.17;;;14.40;90.60;;;;;;5090541;28;20027;-64
2022/10/11 13:00:25;;;;;;;3.83;0.80;;;14.40;90.50;;;;;;5088923;28;20227;-62
2022/10/11 13:02:51;;;;;;;4.22;0.95;;;14.40;90.20;;;;;;5089756;28;20476;-60
2022/10/11 13:05:22;;;;;;;5.45;1.15;;;14.40;90.00;;;;;;5090328;28;20024;-58
2022/10/11 13:07:50;;;;;;;6.60;1.38;;;14.30;89.60;;;;;;5090139;28;20036;-65
2022/10/11 13:10:21;;;;;;;6.18;1.10;;;14.30;90.00;;;;;;5090045;28;20054;-56
2022/10/11 13:12:47;;;;;;;;;;;14.20;90.10;;;;;;5088898;28;20131;-53
2022/10/11 13:15:20;;;;;;;3.08;1.00;;;14.20;90.40;;;;;;5088966;28;19908;-57